createdAt,value
2022-08-03T00:02:20.815Z,100115.37
2022-08-03T00:04:54.504Z,100113.18
2022-08-03T00:07:52.290Z,100116.46
2022-08-03T00:12:43.523Z,100113.33
2022-08-03T00:14:31.180Z,100115.19
2022-08-03T00:17:16.043Z,100118.04
2022-08-03T00:23:29.357Z,100111.25
2022-08-03T00:26:48.413Z,100109.91
2022-08-03T00:30:35.547Z,100110.50
2022-08-03T00:33:58.141Z,100120.90
2022-08-03T00:36:31.582Z,100122.34
2022-08-03T00:39:26.724Z,100129.73
2022-08-03T00:43:28.516Z,100128.52
2022-08-03T00:46:20.546Z,100136.67
2022-08-03T00:49:53.165Z,100137.99
2022-08-03T00:52:39.266Z,100136.69
2022-08-03T00:55:20.149Z,100135.30
2022-08-03T00:57:57.557Z,100137.25
2022-08-03T01:04:11.294Z,100150.40
2022-08-03T01:07:17.068Z,100148.31
2022-08-03T01:10:02.882Z,100155.91
2022-08-03T01:12:42.172Z,100161.04
2022-08-03T01:15:49.299Z,100160.46
2022-08-03T01:18:56.670Z,100155.10
2022-08-03T01:21:46.383Z,100151.75
2022-08-03T01:24:52.884Z,100149.05
2022-08-03T01:28:18.394Z,100153.44
2022-08-03T01:31:32.044Z,100156.33
2022-08-03T01:34:16.006Z,100152.64
2022-08-03T01:37:05.085Z,100150.95
2022-08-03T01:39:57.016Z,100150.45
2022-08-03T01:42:49.564Z,100154.22
2022-08-03T01:45:33.970Z,100151.12
2022-08-03T01:48:27.395Z,100149.35
2022-08-03T01:51:05.015Z,100144.78
2022-08-03T01:53:45.710Z,100137.77
2022-08-03T01:56:19.333Z,100133.91
2022-08-03T01:58:49.740Z,100133.69
2022-08-03T02:01:22.665Z,100130.43
2022-08-03T02:03:59.714Z,100128.32
2022-08-03T02:07:02.002Z,100127.87
2022-08-03T02:09:55.363Z,100127.17
2022-08-03T02:12:51.126Z,100124.89
2022-08-03T02:16:02.089Z,100126.81
2022-08-03T02:18:44.235Z,100121.36
2022-08-03T02:21:21.000Z,100124.98
2022-08-03T02:24:02.317Z,100131.39
2022-08-03T02:26:37.344Z,100132.55
2022-08-03T02:29:39.909Z,100138.10
2022-08-03T02:32:41.187Z,100138.48
2022-08-03T02:35:15.069Z,100131.92
2022-08-03T02:37:51.743Z,100130.91
2022-08-03T02:40:26.800Z,100132.98
2022-08-03T02:43:09.960Z,100131.63
2022-08-03T02:46:00.772Z,100129.67
2022-08-03T02:49:53.368Z,100131.50
2022-08-03T02:52:32.458Z,100131.93
2022-08-03T02:55:26.350Z,100130.47
2022-08-03T02:58:18.255Z,100129.14
2022-08-03T03:01:29.981Z,100128.23
2022-08-03T03:04:41.218Z,100129.50
2022-08-03T03:08:26.021Z,100130.28
2022-08-03T03:12:06.606Z,100137.79
2022-08-03T03:23:05.806Z,100135.06
2022-08-03T03:26:19.297Z,100134.11
2022-08-03T03:29:10.245Z,100135.31
2022-08-03T03:32:47.201Z,100134.86
2022-08-03T03:40:30.333Z,100144.13
2022-08-03T03:44:07.001Z,100145.98
2022-08-03T03:51:41.780Z,100145.95
2022-08-03T03:55:28.598Z,100151.13
2022-08-03T03:59:29.365Z,100160.41
2022-08-03T04:02:01.685Z,100158.48
2022-08-03T04:06:08.494Z,100162.06
2022-08-03T04:10:58.196Z,100158.91
2022-08-03T04:12:39.905Z,100160.96
2022-08-03T04:15:51.492Z,100164.92
2022-08-03T04:18:56.097Z,100165.09
2022-08-03T04:22:34.048Z,100166.44
2022-08-03T04:25:22.419Z,100166.04
2022-08-03T04:28:30.617Z,100164.38
2022-08-03T04:31:25.657Z,100165.25
2022-08-03T04:34:06.964Z,100162.13
2022-08-03T04:37:04.796Z,100159.26
2022-08-03T04:39:48.979Z,100158.06
2022-08-03T04:45:18.807Z,100164.34
2022-08-03T04:48:02.933Z,100166.17
2022-08-03T04:51:20.898Z,100171.01
2022-08-03T04:54:13.210Z,100176.98
2022-08-03T04:56:41.290Z,100181.21
2022-08-03T04:59:10.480Z,100183.33
2022-08-03T05:01:40.449Z,100185.09
2022-08-03T05:04:07.936Z,100183.58
2022-08-03T05:06:39.794Z,100182.20
2022-08-03T05:10:01.357Z,100187.96
2022-08-03T05:14:47.715Z,100188.26
2022-08-03T05:16:15.481Z,100190.73
2022-08-03T05:18:57.677Z,100194.83
2022-08-03T05:21:24.798Z,100192.59
2022-08-03T05:25:49.622Z,100193.67
2022-08-03T05:28:53.504Z,100195.73
2022-08-03T05:31:22.814Z,100197.52
2022-08-03T05:33:54.077Z,100198.23
2022-08-03T05:37:09.465Z,100200.34
2022-08-03T05:39:37.490Z,100200.45
2022-08-03T05:42:07.459Z,100201.20
2022-08-03T05:44:39.644Z,100201.18
2022-08-03T05:47:06.732Z,100204.77
2022-08-03T05:49:38.855Z,100205.06
2022-08-03T05:52:27.496Z,100201.02
2022-08-03T05:54:57.821Z,100205.24
2022-08-03T05:57:25.798Z,100205.38
2022-08-03T05:59:55.733Z,100206.09
2022-08-03T06:02:27.264Z,100203.22
2022-08-03T06:04:54.184Z,100207.70
2022-08-03T06:07:20.975Z,100207.07
2022-08-03T06:10:33.201Z,100210.67
2022-08-03T06:12:35.946Z,100211.37
2022-08-03T06:15:04.318Z,100212.46
2022-08-03T06:17:37.753Z,100219.14
2022-08-03T06:20:05.866Z,100217.42
2022-08-03T06:22:33.015Z,100218.70
2022-08-03T06:25:03.479Z,100220.77
2022-08-03T06:30:27.388Z,100220.72
2022-08-03T06:32:54.311Z,100219.61
2022-08-03T06:35:21.167Z,100222.51
2022-08-03T06:37:50.067Z,100225.91
2022-08-03T06:40:21.626Z,100224.44
2022-08-03T06:42:51.824Z,100224.50
2022-08-03T06:45:18.504Z,100227.76
2022-08-03T06:47:45.387Z,100229.23
2022-08-03T06:50:17.037Z,100230.67
2022-08-03T06:52:44.734Z,100234.30
2022-08-03T06:55:11.543Z,100233.30
2022-08-03T06:57:38.444Z,100233.00
2022-08-03T07:00:11.857Z,100227.14
2022-08-03T07:02:47.145Z,100228.63
2022-08-03T07:05:14.799Z,100230.30
2022-08-03T07:07:41.840Z,100229.16
2022-08-03T07:10:11.025Z,100231.42
2022-08-03T07:13:00.371Z,100229.94
2022-08-03T07:15:38.348Z,100229.73
2022-08-03T07:18:34.131Z,100232.00
2022-08-03T07:21:07.829Z,100232.02
2022-08-03T07:23:38.938Z,100228.23
2022-08-03T07:26:05.829Z,100231.05
2022-08-03T07:28:32.899Z,100227.08
2022-08-03T07:30:59.807Z,100228.68
2022-08-03T07:33:26.547Z,100232.31
2022-08-03T07:35:53.372Z,100223.04
2022-08-03T07:38:21.207Z,100220.92
2022-08-03T07:40:48.430Z,100224.28
2022-08-03T07:43:15.325Z,100225.53
2022-08-03T07:45:42.203Z,100225.09
2022-08-03T07:48:12.425Z,100227.80
2022-08-03T07:50:40.359Z,100223.00
2022-08-03T07:53:07.431Z,100222.34
2022-08-03T07:55:34.649Z,100223.33
2022-08-03T07:58:03.607Z,100222.46
2022-08-03T08:00:31.055Z,100223.02
2022-08-03T08:02:57.954Z,100229.29
2022-08-03T08:05:33.394Z,100226.67
2022-08-03T08:08:05.472Z,100229.57
2022-08-03T08:10:35.736Z,100229.84
2022-08-03T08:13:03.310Z,100228.95
2022-08-03T08:15:33.428Z,100226.58
2022-08-03T08:18:06.249Z,100229.27
2022-08-03T08:20:38.409Z,100229.01
2022-08-03T08:23:37.752Z,100227.52
2022-08-03T08:26:10.673Z,100228.52
2022-08-03T08:28:40.342Z,100230.88
2022-08-03T08:31:10.351Z,100231.57
2022-08-03T08:34:02.663Z,100231.02
2022-08-03T08:36:24.248Z,100227.25
2022-08-03T08:38:54.802Z,100220.65
2022-08-03T08:41:25.722Z,100223.55
2022-08-03T08:44:06.640Z,100220.20
2022-08-03T08:46:39.166Z,100216.45
2022-08-03T08:49:11.554Z,100214.30
2022-08-03T08:51:59.486Z,100216.79
2022-08-03T08:54:45.525Z,100214.24
2022-08-03T08:57:41.780Z,100218.11
2022-08-03T09:00:20.032Z,100215.17
2022-08-03T09:03:11.908Z,100215.10
2022-08-03T09:05:55.425Z,100212.48
2022-08-03T09:08:24.159Z,100211.60
2022-08-03T09:10:55.518Z,100210.23
2022-08-03T09:13:36.323Z,100208.30
2022-08-03T09:16:24.522Z,100208.24
2022-08-03T09:18:53.879Z,100208.46
2022-08-03T09:21:34.482Z,100214.17
2022-08-03T09:24:16.400Z,100215.25
2022-08-03T09:26:54.202Z,100213.02
2022-08-03T09:29:24.983Z,100210.13
2022-08-03T09:32:04.296Z,100211.41
2022-08-03T09:34:31.221Z,100215.13
2022-08-03T09:37:00.534Z,100211.45
2022-08-03T09:39:41.996Z,100207.33
2022-08-03T09:42:29.724Z,100205.55
2022-08-03T09:44:59.943Z,100202.67
2022-08-03T09:47:32.032Z,100204.61
2022-08-03T09:50:04.242Z,100201.35
2022-08-03T09:52:50.256Z,100199.12
2022-08-03T09:56:32.995Z,100189.95
2022-08-03T09:59:14.478Z,100192.25
2022-08-03T10:01:43.546Z,100185.98
2022-08-03T10:04:16.533Z,100182.48
2022-08-03T10:07:28.735Z,100180.53
2022-08-03T10:10:52.363Z,100179.03
2022-08-03T10:16:21.917Z,100180.83
2022-08-03T10:18:57.683Z,100183.05
2022-08-03T10:21:38.154Z,100178.39
2022-08-03T10:24:34.744Z,100172.39
2022-08-03T10:28:11.371Z,100175.60
2022-08-03T10:30:47.943Z,100176.57
2022-08-03T10:33:50.335Z,100173.91
2022-08-03T10:36:40.482Z,100165.94
2022-08-03T10:42:33.119Z,100165.70
2022-08-03T10:45:09.518Z,100157.25
2022-08-03T10:47:40.559Z,100159.54
2022-08-03T10:50:09.087Z,100163.87
2022-08-03T10:53:06.553Z,100166.06
2022-08-03T10:55:55.372Z,100168.45
2022-08-03T10:58:37.086Z,100163.58
2022-08-03T11:01:06.074Z,100162.81
2022-08-03T11:03:36.174Z,100160.45
2022-08-03T11:06:19.775Z,100158.66
2022-08-03T11:08:50.437Z,100159.48
2022-08-03T11:11:17.000Z,100150.61
2022-08-03T11:14:16.816Z,100151.66
2022-08-03T11:16:50.035Z,100151.15
2022-08-03T11:19:22.994Z,100148.80
2022-08-03T11:21:55.951Z,100148.52
2022-08-03T11:24:40.877Z,100147.12
2022-08-03T11:27:14.091Z,100144.54
2022-08-03T11:29:59.652Z,100137.82
2022-08-03T11:32:46.754Z,100138.90
2022-08-03T11:35:25.920Z,100134.39
2022-08-03T11:38:04.995Z,100136.29
2022-08-03T11:40:48.931Z,100132.01
2022-08-03T11:43:21.917Z,100123.20
2022-08-03T11:46:33.808Z,100124.63
2022-08-03T11:49:10.455Z,100126.00
2022-08-03T11:51:39.750Z,100118.63
2022-08-03T11:54:36.410Z,100124.20
2022-08-03T11:57:09.191Z,100122.66
2022-08-03T12:00:10.076Z,100118.77
2022-08-03T12:03:18.489Z,100121.27
2022-08-03T12:06:31.036Z,100113.07
2022-08-03T12:09:21.232Z,100110.30
2022-08-03T12:16:15.282Z,100111.91
2022-08-03T12:18:42.408Z,100111.34
2022-08-03T12:21:18.254Z,100108.38
2022-08-03T12:23:45.286Z,100110.04
2022-08-03T12:26:15.109Z,100108.34
2022-08-03T12:28:55.355Z,100108.05
2022-08-03T12:31:35.266Z,100107.85
2022-08-03T12:34:22.555Z,100109.66
2022-08-03T12:37:45.017Z,100103.12
2022-08-03T12:40:36.820Z,100095.72
2022-08-03T12:43:12.497Z,100085.41
2022-08-03T12:46:53.681Z,100090.02
2022-08-03T12:56:49.695Z,100085.05
2022-08-03T12:57:11.245Z,100082.61
2022-08-03T13:00:21.291Z,100085.71
2022-08-03T13:03:39.219Z,100088.98
2022-08-03T13:06:13.741Z,100083.02
2022-08-03T13:08:41.630Z,100085.33
2022-08-03T13:11:58.078Z,100080.35
2022-08-03T13:15:01.117Z,100083.67
2022-08-03T13:17:31.154Z,100075.29
2022-08-03T13:20:00.926Z,100080.92
2022-08-03T13:22:37.037Z,100078.10
2022-08-03T13:25:04.671Z,100070.45
2022-08-03T13:28:04.864Z,100065.42
2022-08-03T13:30:30.204Z,100064.35
2022-08-03T13:33:10.348Z,100064.41
2022-08-03T13:35:40.146Z,100070.44
2022-08-03T13:38:18.276Z,100069.30
2022-08-03T13:41:34.862Z,100067.11
2022-08-03T13:44:26.733Z,100062.85
2022-08-03T13:47:01.332Z,100068.90
2022-08-03T13:49:32.818Z,100068.27
2022-08-03T13:52:05.239Z,100069.46
2022-08-03T13:54:46.272Z,100066.86
2022-08-03T13:58:05.753Z,100058.88
2022-08-03T14:00:07.411Z,100067.02
2022-08-03T14:02:45.514Z,100070.60
2022-08-03T14:05:17.954Z,100071.90
2022-08-03T14:07:51.204Z,100075.95
2022-08-03T14:10:40.890Z,100069.77
2022-08-03T14:13:09.884Z,100071.75
2022-08-03T14:15:37.514Z,100061.20
2022-08-03T14:18:27.524Z,100058.85
2022-08-03T14:21:04.952Z,100066.50
2022-08-03T14:23:51.840Z,100065.34
2022-08-03T14:26:23.767Z,100061.05
2022-08-03T14:28:50.797Z,100053.63
2022-08-03T14:32:10.975Z,100050.58
2022-08-03T14:34:42.975Z,100050.95
2022-08-03T14:37:13.511Z,100044.92
2022-08-03T14:40:01.689Z,100044.96
2022-08-03T14:42:28.888Z,100040.23
2022-08-03T14:45:07.230Z,100043.50
2022-08-03T14:49:02.745Z,100037.67
2022-08-03T14:51:03.988Z,100044.83
2022-08-03T14:53:46.174Z,100043.94
2022-08-03T14:56:16.695Z,100042.21
2022-08-03T14:58:46.062Z,100050.89
2022-08-03T15:02:02.768Z,100045.59
2022-08-03T15:04:39.476Z,100040.64
2022-08-03T15:07:17.694Z,100038.66
2022-08-03T15:09:50.297Z,100033.56
2022-08-03T15:12:42.224Z,100034.23
2022-08-03T15:15:35.780Z,100034.16
2022-08-03T15:18:44.841Z,100037.33
2022-08-03T15:21:16.669Z,100038.39
2022-08-03T15:24:06.135Z,100039.46
2022-08-03T15:26:46.810Z,100039.73
2022-08-03T15:30:06.028Z,100040.45
2022-08-03T15:32:22.604Z,100034.21
2022-08-03T15:35:00.972Z,100034.13
2022-08-03T15:37:48.414Z,100026.73
2022-08-03T15:40:22.992Z,100028.20
2022-08-03T15:43:18.783Z,100026.86
2022-08-03T15:45:47.086Z,100028.80
2022-08-03T15:48:39.894Z,100030.11
2022-08-03T15:51:16.550Z,100030.70
2022-08-03T15:54:01.886Z,100026.20
2022-08-03T15:56:36.269Z,100030.49
2022-08-03T15:59:12.483Z,100029.70
2022-08-03T16:01:50.421Z,100029.98
2022-08-03T16:04:20.371Z,100025.86
2022-08-03T16:06:50.057Z,100024.91
2022-08-03T16:09:24.138Z,100026.44
2022-08-03T16:12:16.264Z,100023.42
2022-08-03T16:14:53.775Z,100022.27
2022-08-03T16:17:24.718Z,100022.48
2022-08-03T16:19:56.075Z,100021.36
2022-08-03T16:22:47.843Z,100021.14
2022-08-03T16:25:27.041Z,100020.05
2022-08-03T16:28:03.262Z,100019.69
2022-08-03T16:30:46.867Z,100019.11
2022-08-03T16:33:32.254Z,100018.07
2022-08-03T16:36:13.759Z,100014.22
2022-08-03T16:38:49.482Z,100016.92
2022-08-03T16:41:54.525Z,100015.52
2022-08-03T16:44:56.969Z,100018.48
2022-08-03T16:47:37.382Z,100021.66
2022-08-03T16:50:19.998Z,100019.58
2022-08-03T16:53:16.450Z,100016.93
2022-08-03T16:56:10.914Z,100017.06
2022-08-03T16:59:36.072Z,100020.71
2022-08-03T17:01:48.612Z,100018.29
2022-08-03T17:04:20.239Z,100022.14
2022-08-03T17:06:51.885Z,100024.15
2022-08-03T17:09:38.937Z,100025.77
2022-08-03T17:12:50.967Z,100027.36
2022-08-03T17:15:20.714Z,100028.48
2022-08-03T17:18:23.982Z,100031.64
2022-08-03T17:21:35.419Z,100034.01
2022-08-03T17:24:43.196Z,100038.07
2022-08-03T17:30:41.262Z,100037.83
2022-08-03T17:30:51.754Z,100040.48
2022-08-03T17:33:35.579Z,100040.79
2022-08-03T17:37:04.220Z,100044.79
2022-08-03T17:40:08.758Z,100051.13
2022-08-03T17:42:45.495Z,100052.50
2022-08-03T17:46:03.157Z,100051.66
2022-08-03T17:48:43.078Z,100052.52
2022-08-03T17:51:35.498Z,100054.42
2022-08-03T17:54:37.856Z,100057.34
2022-08-03T17:58:01.453Z,100055.79
2022-08-03T18:00:56.004Z,100058.35
2022-08-03T18:03:59.110Z,100060.13
2022-08-03T18:06:31.154Z,100065.27
2022-08-03T18:09:05.209Z,100068.41
2022-08-03T18:11:58.336Z,100070.26
2022-08-03T18:14:37.900Z,100070.70
2022-08-03T18:17:10.254Z,100073.45
2022-08-03T18:20:03.304Z,100077.36
2022-08-03T18:22:30.520Z,100078.39
2022-08-03T18:25:07.877Z,100083.03
2022-08-03T18:27:45.648Z,100077.58
2022-08-03T18:30:16.908Z,100077.89
2022-08-03T18:35:54.117Z,100083.15
2022-08-03T18:38:21.732Z,100082.32
2022-08-03T18:40:53.376Z,100082.61
2022-08-03T18:43:46.438Z,100084.04
2022-08-03T18:46:41.015Z,100085.08
2022-08-03T18:49:20.377Z,100088.21
2022-08-03T18:51:57.774Z,100090.15
2022-08-03T18:54:45.861Z,100093.73
2022-08-03T18:57:34.834Z,100094.95
2022-08-03T19:00:16.839Z,100097.55
2022-08-03T19:02:52.121Z,100098.55
2022-08-03T19:05:24.252Z,100096.52
2022-08-03T19:08:34.217Z,100101.03
2022-08-03T19:11:07.801Z,100100.58
2022-08-03T19:13:51.990Z,100102.45
2022-08-03T19:16:39.411Z,100105.88
2022-08-03T19:19:14.478Z,100105.73
2022-08-03T19:21:43.797Z,100105.27
2022-08-03T19:24:13.299Z,100105.59
2022-08-03T19:26:40.866Z,100112.65
2022-08-03T19:29:15.210Z,100112.60
2022-08-03T19:31:54.440Z,100114.03
2022-08-03T19:34:30.239Z,100116.48
2022-08-03T19:37:00.234Z,100116.98
2022-08-03T19:39:27.134Z,100116.38
2022-08-03T19:42:08.234Z,100117.98
2022-08-03T19:44:47.825Z,100117.77
2022-08-03T19:47:30.875Z,100121.33
2022-08-03T19:50:05.885Z,100122.30
2022-08-03T19:52:39.509Z,100119.67
2022-08-03T19:55:12.680Z,100126.39
2022-08-03T19:57:49.382Z,100127.02
2022-08-03T20:00:19.071Z,100124.71
2022-08-03T20:02:50.762Z,100125.04
2022-08-03T20:05:17.922Z,100123.88
2022-08-03T20:07:48.258Z,100126.63
2022-08-03T20:10:19.844Z,100129.25
2022-08-03T20:12:49.286Z,100128.95
2022-08-03T20:15:22.156Z,100128.15
2022-08-03T20:18:06.372Z,100134.00
2022-08-03T20:20:47.814Z,100137.00
2022-08-03T20:23:19.275Z,100134.90
2022-08-03T20:25:58.490Z,100130.17
2022-08-03T20:28:34.540Z,100129.79
2022-08-03T20:31:01.878Z,100128.33
2022-08-03T20:33:46.724Z,100131.82
2022-08-03T20:36:18.009Z,100132.23
2022-08-03T20:38:52.013Z,100131.73
2022-08-03T20:41:21.557Z,100133.48
2022-08-03T20:43:51.485Z,100133.65
2022-08-03T20:46:46.505Z,100128.74
2022-08-03T20:49:22.929Z,100127.08
2022-08-03T20:51:53.132Z,100127.45
2022-08-03T20:54:29.486Z,100131.20
2022-08-03T20:57:03.847Z,100131.35
2022-08-03T20:59:47.162Z,100130.64
2022-08-03T21:02:29.015Z,100135.80
2022-08-03T21:04:59.145Z,100138.16
2022-08-03T21:08:03.702Z,100138.30
2022-08-03T21:10:28.465Z,100134.48
2022-08-03T21:13:04.111Z,100078.55
2022-08-03T21:13:17.468Z,100134.77
2022-08-03T21:16:06.756Z,100135.05
2022-08-03T21:18:38.892Z,100131.92
2022-08-03T21:21:06.720Z,100133.40
2022-08-03T21:23:47.567Z,100130.61
2022-08-03T21:26:19.534Z,100129.77
2022-08-03T21:28:48.629Z,100129.98
2022-08-03T21:31:25.080Z,100126.69
2022-08-03T21:34:04.265Z,100123.39
2022-08-03T21:36:36.356Z,100124.61
2022-08-03T21:39:07.492Z,100127.08
2022-08-03T21:41:39.382Z,100132.33
2022-08-03T21:44:07.398Z,100136.93
2022-08-03T21:46:39.961Z,100141.53
2022-08-03T21:50:07.750Z,100139.46
2022-08-03T21:52:06.725Z,100137.05
2022-08-03T21:54:37.172Z,100137.42
2022-08-03T21:57:13.195Z,100140.23
2022-08-03T22:00:01.989Z,100137.41
2022-08-03T22:02:32.125Z,100137.58
2022-08-03T22:05:05.162Z,100135.33
2022-08-03T22:08:00.908Z,100141.34
2022-08-03T22:10:28.330Z,100140.67
2022-08-03T22:12:57.845Z,100138.66
2022-08-03T22:15:34.339Z,100139.92
2022-08-03T22:18:26.197Z,100144.09
2022-08-03T22:21:36.146Z,100144.02
2022-08-03T22:24:19.468Z,100144.53
2022-08-03T22:31:30.524Z,100145.54
2022-08-03T22:34:14.170Z,100151.34
2022-08-03T22:36:41.887Z,100154.02
2022-08-03T22:39:26.168Z,100152.85
2022-08-03T22:42:25.377Z,100159.64
2022-08-03T22:45:06.549Z,100161.44
2022-08-03T22:47:50.777Z,100158.21
2022-08-03T22:50:49.012Z,100161.02
2022-08-03T22:54:08.424Z,100162.27
2022-08-03T22:56:38.480Z,100160.11
2022-08-03T22:59:40.807Z,100162.35
2022-08-03T23:02:20.339Z,100159.94
2022-08-03T23:05:59.541Z,100157.04
2022-08-03T23:11:11.608Z,100164.67
2022-08-03T23:15:20.287Z,100167.14
2022-08-03T23:17:26.115Z,100163.55
2022-08-03T23:19:59.885Z,100162.65
2022-08-03T23:22:30.760Z,100162.13
2022-08-03T23:25:22.876Z,100160.83
2022-08-03T23:28:04.985Z,100158.48
2022-08-03T23:31:21.229Z,100161.23
2022-08-03T23:38:10.729Z,100159.88
2022-08-03T23:43:07.745Z,100156.37
2022-08-03T23:44:49.690Z,100154.80
2022-08-03T23:47:16.650Z,100154.66
2022-08-03T23:54:14.333Z,100151.56
